Time;durP1;ratioP1;P1;durP2;ratioP2;P2;SDS_P1;SDS_P2;PMS_P1;PMS_P2;Temp;Humidity;BMP_temperature;BMP_pressure;BME280_temperature;BME280_humidity;BME280_pressure;Samples;Min_cycle;Max_cycle;Signal;HPM_P1;HPM_P2
2022/02/20 00:02:10;;;;;;;0.00;0.00;;;;;;;7.97;90.06;99929.31;4931919;29;20031;-69
2022/02/20 00:04:36;;;;;;;0.10;0.10;;;;;;;8.02;89.65;99942.16;4932223;29;20059;-70
2022/02/20 00:07:12;;;;;;;;;;;;;;;;;;;;;
2022/02/20 00:09:42;;;;;;;0.00;0.00;;;;;;;8.23;90.20;99955.91;4938532;29;20734;-72
2022/02/20 00:12:18;;;;;;;2.38;1.10;;;;;;;8.33;90.43;99945.09;4931664;29;20127;-72
2022/02/20 00:14:46;;;;;;;0.00;0.00;;;;;;;8.49;90.28;99944.09;4912773;29;20047;-72
2022/02/20 00:17:29;;;;;;;0.00;0.00;;;;;;;8.58;90.11;99936.25;4925776;29;20039;-70
2022/02/20 00:19:57;;;;;;;0.00;0.00;;;;;;;8.68;89.70;99916.41;4947041;28;20087;-72
2022/02/20 00:22:27;;;;;;;0.52;0.52;;;;;;;8.75;89.53;99922.44;4936001;29;20028;-69
2022/02/20 00:25:01;;;;;;;0.00;0.00;;;;;;;8.81;89.21;99932.28;4928062;29;20030;-71
2022/02/20 00:27:29;;;;;;;0.00;0.00;;;;;;;8.86;89.61;99913.22;4929329;29;20033;-70
2022/02/20 00:30:03;;;;;;;0.00;0.00;;;;;;;8.95;89.57;99932.63;4934079;29;20770;-70
2022/02/20 00:32:29;;;;;;;0.00;0.00;;;;;;;9.03;89.08;99943.00;4948388;28;20016;-70
2022/02/20 00:34:57;;;;;;;0.00;0.00;;;;;;;9.06;88.78;99938.91;4936841;29;20037;-71
2022/02/20 00:37:22;;;;;;;0.22;0.22;;;;;;;9.15;88.66;99942.75;4938105;29;20016;-70
2022/02/20 00:39:53;;;;;;;0.00;0.00;;;;;;;9.23;89.02;99934.06;4940604;28;20169;-70
2022/02/20 00:42:19;;;;;;;0.00;0.00;;;;;;;9.24;88.57;99946.63;4947773;28;20597;-70
2022/02/20 00:44:46;;;;;;;0.00;0.00;;;;;;;9.29;88.27;99943.06;4934054;29;20106;-71
2022/02/20 00:47:23;;;;;;;0.88;0.80;;;;;;;9.29;88.02;99937.63;4933753;29;20030;-70
2022/02/20 00:49:51;;;;;;;0.00;0.00;;;;;;;9.32;88.04;99931.63;4950652;28;20047;-71
2022/02/20 00:52:19;;;;;;;5.82;0.38;;;;;;;9.31;87.54;99929.16;4942265;28;20055;-70
2022/02/20 00:54:46;;;;;;;0.00;0.00;;;;;;;9.36;87.92;99942.81;4946264;28;20075;-70
2022/02/20 00:57:38;;;;;;;0.65;0.65;;;;;;;9.35;87.83;99928.34;4935119;29;20039;-71
2022/02/20 01:00:16;;;;;;;0.00;0.00;;;;;;;9.43;88.00;99916.91;4942326;28;20036;-73
2022/02/20 01:02:46;;;;;;;0.00;0.00;;;;;;;9.39;87.23;99909.53;4927360;29;20059;-71
2022/02/20 01:05:27;;;;;;;;;;;;;;;;;;;;;
2022/02/20 01:08:02;;;;;;;0.00;0.00;;;;;;;9.35;87.52;99908.44;4933147;29;20116;-70
2022/02/20 01:10:31;;;;;;;0.00;0.00;;;;;;;9.34;87.83;99890.41;4937449;29;20028;-72
2022/02/20 01:13:00;;;;;;;1.17;0.95;;;;;;;9.35;87.31;99897.53;4938492;29;20035;-71
2022/02/20 01:15:32;;;;;;;0.00;0.00;;;;;;;9.34;87.20;99887.69;4937773;29;20031;-69
2022/02/20 01:18:00;;;;;;;0.63;0.63;;;;;;;9.35;86.90;99908.44;4933319;29;20094;-71
2022/02/20 01:20:32;;;;;;;0.00;0.00;;;;;;;9.33;87.33;99872.41;4944662;28;20042;-69
2022/02/20 01:23:06;;;;;;;0.00;0.00;;;;;;;9.35;86.96;99892.06;4939143;28;20027;-70
2022/02/20 01:25:32;;;;;;;0.00;0.00;;;;;;;9.36;87.29;99893.69;4933599;29;20040;-70
2022/02/20 01:28:00;;;;;;;0.00;0.00;;;;;;;9.36;87.14;99894.53;4931850;29;20098;-70
2022/02/20 01:30:35;;;;;;;0.00;0.00;;;;;;;9.32;87.65;99898.06;4932970;29;20032;-72
2022/02/20 01:33:11;;;;;;;24.80;1.17;;;;;;;9.35;87.44;99897.53;4936799;29;20063;-73
2022/02/20 01:35:42;;;;;;;0.00;0.00;;;;;;;9.36;87.47;99889.06;4934109;29;20040;-72
2022/02/20 01:38:07;;;;;;;0.00;0.00;;;;;;;9.35;87.19;99905.72;4920123;29;20040;-72
2022/02/20 01:40:35;;;;;;;0.00;0.00;;;;;;;9.47;87.57;99911.72;4945935;28;20024;-71
2022/02/20 01:43:01;;;;;;;0.00;0.00;;;;;;;9.51;87.38;99912.00;4935417;29;20478;-71
2022/02/20 01:45:33;;;;;;;0.17;0.17;;;;;;;9.51;87.15;99915.56;4914751;29;20043;-71
2022/02/20 01:47:58;;;;;;;0.00;0.00;;;;;;;9.51;87.09;99921.00;4931916;29;20040;-72
2022/02/20 01:50:24;;;;;;;0.00;0.00;;;;;;;9.51;87.86;99912.81;4949148;28;20139;-70
2022/02/20 01:52:54;;;;;;;0.00;0.00;;;;;;;9.45;88.00;99913.91;4938410;29;20102;-70
2022/02/20 01:55:22;;;;;;;2.83;2.63;;;;;;;9.39;88.50;99904.09;4951448;28;20032;-71
2022/02/20 01:57:54;;;;;;;0.80;0.80;;;;;;;9.33;89.26;99894.22;4932801;28;20015;-70
2022/02/20 02:00:26;;;;;;;0.45;0.45;;;;;;;9.25;89.47;99877.31;4930273;29;20032;-71
2022/02/20 02:02:54;;;;;;;0.00;0.00;;;;;;;9.19;89.96;99883.84;4933439;29;20059;-70
2022/02/20 02:05:26;;;;;;;0.00;0.00;;;;;;;9.16;90.78;99878.13;4918979;29;20082;-73
2022/02/20 02:07:52;;;;;;;0.00;0.00;;;;;;;9.13;90.81;99874.03;4933262;29;20058;-69
2022/02/20 02:10:18;;;;;;;0.00;0.00;;;;;;;9.05;91.37;99871.81;4935591;29;20067;-73
2022/02/20 02:12:44;;;;;;;0.00;0.00;;;;;;;9.06;92.17;99878.91;4936283;29;20024;-73
2022/02/20 02:15:12;;;;;;;0.90;0.35;;;;;;;9.04;92.29;99878.38;4951165;28;20040;-73
2022/02/20 02:17:38;;;;;;;0.00;0.00;;;;;;;9.03;92.53;99865.81;4945918;28;20050;-70
2022/02/20 02:20:07;;;;;;;3.30;1.02;;;;;;;9.03;92.89;99884.91;4924409;29;20031;-71
2022/02/20 02:22:32;;;;;;;4.47;0.60;;;;;;;9.08;92.70;99909.44;4938186;29;20032;-70
2022/02/20 02:24:59;;;;;;;0.00;0.00;;;;;;;9.12;93.02;99877.81;4929431;29;20486;-71
2022/02/20 02:27:25;;;;;;;0.00;0.00;;;;;;;9.18;92.60;99868.56;4933936;29;20072;-71
2022/02/20 02:29:51;;;;;;;0.00;0.00;;;;;;;9.25;92.48;99882.75;4933797;29;20063;-72
2022/02/20 02:32:17;;;;;;;0.00;0.00;;;;;;;9.27;92.33;99874.31;4932709;29;20035;-72
2022/02/20 02:34:45;;;;;;;0.00;0.00;;;;;;;9.30;92.25;99862.03;4933112;29;20075;-71
2022/02/20 02:37:11;;;;;;;0.00;0.00;;;;;;;9.32;92.03;99859.88;4945829;28;20020;-71
2022/02/20 02:39:38;;;;;;;0.00;0.00;;;;;;;9.40;92.35;99851.13;4934726;29;20050;-70
2022/02/20 02:42:05;;;;;;;0.00;0.00;;;;;;;9.43;91.50;99842.38;4937505;29;20035;-72
2022/02/20 02:44:30;;;;;;;5.72;1.75;;;;;;;9.45;91.77;99870.25;4951912;28;20047;-72
2022/02/20 02:46:56;;;;;;;0.00;0.00;;;;;;;9.42;91.00;99862.59;4939859;29;20056;-71
2022/02/20 02:49:21;;;;;;;0.00;0.00;;;;;;;9.44;91.16;99853.03;4955345;28;20052;-71
2022/02/20 02:51:47;;;;;;;0.00;0.00;;;;;;;9.47;91.10;99857.13;4938835;29;20079;-73
2022/02/20 02:54:17;;;;;;;0.05;0.05;;;;;;;9.50;91.04;99856.59;4935956;29;20040;-72
2022/02/20 02:56:43;;;;;;;0.00;0.00;;;;;;;9.55;90.90;99848.41;4934143;29;20484;-69
2022/02/20 02:59:10;;;;;;;2.17;2.08;;;;;;;9.59;90.55;99857.69;4955318;28;20102;-70
2022/02/20 03:01:36;;;;;;;0.00;0.00;;;;;;;9.63;90.55;99859.88;4937371;28;20032;-69
2022/02/20 03:04:01;;;;;;;3.83;1.38;;;;;;;9.61;89.90;99851.97;4941454;29;20227;-69
2022/02/20 03:06:26;;;;;;;0.00;0.00;;;;;;;9.59;89.92;99854.97;4933723;29;20040;-70
2022/02/20 03:08:54;;;;;;;0.00;0.00;;;;;;;9.64;89.57;99845.13;4938930;29;20486;-69
2022/02/20 03:11:20;;;;;;;0.00;0.00;;;;;;;9.65;89.55;99841.31;4954085;29;20032;-70
2022/02/20 03:13:45;;;;;;;0.55;0.55;;;;;;;9.59;89.26;99827.66;4926927;29;20031;-70
2022/02/20 03:16:11;;;;;;;1.25;1.25;;;;;;;9.55;89.35;99825.72;4942962;29;20027;-69
2022/02/20 03:18:37;;;;;;;0.00;0.00;;;;;;;9.60;88.65;99842.13;4943051;29;20027;-70
2022/02/20 03:21:05;;;;;;;0.47;0.47;;;;;;;9.62;88.66;99837.19;4956304;28;20439;-70
2022/02/20 03:23:32;;;;;;;0.05;0.05;;;;;;;9.66;88.13;99838.28;4935210;29;20024;-69
2022/02/20 03:25:57;;;;;;;5.28;1.13;;;;;;;9.66;87.03;99821.09;4941857;29;20029;-69
2022/02/20 03:28:23;;;;;;;0.10;0.10;;;;;;;9.68;86.63;99824.38;4950560;29;20032;-70
2022/02/20 03:30:49;;;;;;;9.85;2.35;;;;;;;9.69;86.90;99821.34;4945081;29;20055;-71
2022/02/20 03:33:15;;;;;;;0.00;0.00;;;;;;;9.67;86.22;99828.22;4939775;29;20039;-70
2022/02/20 03:35:41;;;;;;;3.60;1.55;;;;;;;9.63;87.36;99821.66;4946977;29;20470;-70
2022/02/20 03:38:07;;;;;;;1.60;0.52;;;;;;;9.57;88.58;99829.03;4947014;29;20031;-71
2022/02/20 03:40:33;;;;;;;0.00;0.00;;;;;;;9.48;88.53;99833.41;4933948;29;20509;-71
2022/02/20 03:43:01;;;;;;;0.40;0.40;;;;;;;9.42;89.37;99838.03;4940853;29;20482;-70
2022/02/20 03:45:28;;;;;;;0.47;0.47;;;;;;;9.34;89.62;99836.66;4933614;29;20031;-69
2022/02/20 03:47:53;;;;;;;0.00;0.00;;;;;;;9.31;90.10;99837.19;4932901;29;20543;-69
2022/02/20 03:50:20;;;;;;;21.17;0.68;;;;;;;9.31;90.42;99847.31;4938894;28;20055;-69
2022/02/20 03:52:47;;;;;;;0.00;0.00;;;;;;;9.33;90.34;99866.94;4931426;29;20410;-70
2022/02/20 03:55:12;;;;;;;0.15;0.15;;;;;;;9.33;90.01;99839.66;4938871;29;20177;-68
2022/02/20 03:57:39;;;;;;;0.00;0.00;;;;;;;9.29;89.46;99852.19;4938862;29;20166;-69
2022/02/20 04:00:13;;;;;;;0.00;0.00;;;;;;;9.32;89.92;99848.97;4932374;29;20310;-70
2022/02/20 04:02:40;;;;;;;4.45;2.53;;;;;;;9.38;89.98;99853.31;4928655;29;20627;-68
2022/02/20 04:05:08;;;;;;;0.10;0.10;;;;;;;9.40;89.42;99843.78;4952723;28;20046;-69
2022/02/20 04:07:34;;;;;;;0.00;0.00;;;;;;;9.38;89.42;99845.13;4941046;29;20444;-69
2022/02/20 04:10:01;;;;;;;14.10;0.52;;;;;;;9.37;89.18;99847.03;4932774;29;20545;-69
2022/02/20 04:12:26;;;;;;;0.43;0.32;;;;;;;9.34;89.23;99833.94;4943700;28;20031;-70
2022/02/20 04:14:52;;;;;;;2.17;1.92;;;;;;;9.34;89.32;99841.31;4935663;29;20090;-68
2022/02/20 04:17:20;;;;;;;0.20;0.20;;;;;;;9.37;89.33;99838.03;4945288;28;20087;-70
2022/02/20 04:19:47;;;;;;;0.00;0.00;;;;;;;9.36;88.82;99839.94;4936111;29;20500;-68
2022/02/20 04:22:13;;;;;;;0.55;0.55;;;;;;;9.38;88.73;99845.13;4928557;29;20359;-69
2022/02/20 04:24:39;;;;;;;0.00;0.00;;;;;;;9.41;88.35;99836.41;4932510;29;20083;-69
2022/02/20 04:27:04;;;;;;;0.00;0.00;;;;;;;9.47;88.32;99835.28;4938294;29;20403;-71
2022/02/20 04:29:30;;;;;;;0.10;0.10;;;;;;;9.50;88.11;99833.94;4941207;29;20381;-71
2022/02/20 04:31:56;;;;;;;0.00;0.00;;;;;;;9.48;87.46;99847.06;4954485;28;20039;-71
2022/02/20 04:34:21;;;;;;;0.65;0.52;;;;;;;9.45;87.78;99821.13;4940710;29;20026;-71
2022/02/20 04:36:47;;;;;;;0.00;0.00;;;;;;;9.42;88.52;99816.22;4940913;29;20060;-71
2022/02/20 04:39:12;;;;;;;0.00;0.00;;;;;;;9.39;88.64;99814.84;4952697;28;20040;-73
2022/02/20 04:41:38;;;;;;;1.00;1.00;;;;;;;9.35;88.50;99818.41;4936904;29;20053;-70
2022/02/20 04:44:04;;;;;;;0.00;0.00;;;;;;;9.35;88.84;99810.22;4935731;29;20410;-72
2022/02/20 04:46:33;;;;;;;0.32;0.32;;;;;;;9.32;87.77;99808.03;4934202;29;20039;-69
2022/02/20 04:48:59;;;;;;;0.28;0.28;;;;;;;9.29;88.33;99805.81;4914190;29;20540;-70
2022/02/20 04:51:25;;;;;;;0.35;0.35;;;;;;;9.26;87.27;99813.47;4927679;29;20027;-68
2022/02/20 04:53:51;;;;;;;5.70;1.08;;;;;;;9.28;87.30;99815.13;4943176;28;20083;-70
2022/02/20 04:56:16;;;;;;;1.55;0.80;;;;;;;9.28;87.46;99826.03;4943721;28;20031;-70
2022/02/20 04:58:42;;;;;;;2.65;1.02;;;;;;;9.33;87.10;99806.91;4929081;29;20032;-70
2022/02/20 05:01:07;;;;;;;0.00;0.00;;;;;;;9.37;87.07;99802.56;4932800;29;20051;-71
2022/02/20 05:03:33;;;;;;;0.00;0.00;;;;;;;9.40;86.90;99791.94;4929365;29;20055;-68
2022/02/20 05:05:58;;;;;;;11.52;3.72;;;;;;;9.36;85.73;99800.91;4932005;29;20032;-70
2022/02/20 05:08:24;;;;;;;0.00;0.00;;;;;;;9.33;84.79;99801.47;4945652;28;20092;-71
2022/02/20 05:10:49;;;;;;;6.82;2.08;;;;;;;9.38;85.07;99788.63;4936036;29;20031;-69
2022/02/20 05:13:15;;;;;;;0.00;0.00;;;;;;;9.38;85.10;99787.81;4932254;29;20063;-69
2022/02/20 05:15:40;;;;;;;0.00;0.00;;;;;;;9.40;85.16;99791.09;4927225;29;20065;-69
2022/02/20 05:18:06;;;;;;;0.00;0.00;;;;;;;9.39;84.13;99794.94;4928014;29;20043;-70
2022/02/20 05:20:32;;;;;;;6.03;2.38;;;;;;;9.42;83.95;99784.28;4926997;29;20110;-70
2022/02/20 05:22:57;;;;;;;0.00;0.00;;;;;;;9.45;83.80;99777.44;4926582;29;20039;-71
2022/02/20 05:25:23;;;;;;;0.00;0.00;;;;;;;9.53;83.04;99782.34;4942897;28;20032;-70
2022/02/20 05:27:48;;;;;;;0.00;0.00;;;;;;;9.63;83.48;99767.06;4917474;29;20033;-69
2022/02/20 05:30:16;;;;;;;0.00;0.00;;;;;;;9.68;82.30;99748.75;4935052;29;20054;-71
2022/02/20 05:32:42;;;;;;;0.28;0.28;;;;;;;9.73;82.04;99750.66;4933484;29;20048;-70
2022/02/20 05:35:09;;;;;;;1.65;1.65;;;;;;;9.73;80.86;99758.84;4937794;29;20023;-70
2022/02/20 05:37:42;;;;;;;0.25;0.25;;;;;;;9.75;80.86;99745.72;4951666;28;20645;-71
2022/02/20 05:40:10;;;;;;;0.38;0.38;;;;;;;9.75;79.87;99749.28;4937256;29;20036;-70
2022/02/20 05:42:35;;;;;;;2.05;1.95;;;;;;;9.78;79.58;99734.25;4933632;29;20028;-70
2022/02/20 05:45:01;;;;;;;1.20;0.47;;;;;;;9.76;79.27;99707.22;4937334;29;20040;-70
2022/02/20 05:47:27;;;;;;;0.00;0.00;;;;;;;9.72;78.99;99710.78;4933486;29;20055;-68
2022/02/20 05:49:52;;;;;;;14.85;2.55;;;;;;;9.69;78.74;99744.09;4945767;28;20066;-69
2022/02/20 05:52:18;;;;;;;1.65;0.22;;;;;;;9.68;78.77;99720.63;4959584;28;20036;-71
2022/02/20 05:54:43;;;;;;;0.00;0.00;;;;;;;9.70;79.64;99745.75;4959787;28;20114;-70
2022/02/20 05:57:08;;;;;;;0.00;0.00;;;;;;;9.73;78.66;99728.81;4959932;28;20032;-69
2022/02/20 05:59:34;;;;;;;0.00;0.00;;;;;;;9.78;79.32;99743.28;4923565;28;20095;-70
2022/02/20 06:01:59;;;;;;;6.93;1.65;;;;;;;9.81;78.17;99747.34;4955339;28;20052;-71
2022/02/20 06:04:25;;;;;;;19.17;1.10;;;;;;;9.84;77.84;99730.44;4957007;28;21900;-69
2022/02/20 06:06:50;;;;;;;4.47;0.22;;;;;;;9.85;77.81;99734.78;4942076;29;20095;-70
2022/02/20 06:09:15;;;;;;;0.90;0.90;;;;;;;9.86;77.68;99736.41;4949915;28;20035;-69
2022/02/20 06:11:41;;;;;;;1.55;1.45;;;;;;;9.91;77.90;99722.72;4933943;28;20062;-70
2022/02/20 06:14:06;;;;;;;0.15;0.15;;;;;;;9.95;77.72;99704.69;4948886;28;20031;-69
2022/02/20 06:16:32;;;;;;;0.70;0.70;;;;;;;9.99;76.91;99710.44;4954728;28;20035;-70
2022/02/20 06:18:59;;;;;;;0.25;0.25;;;;;;;10.03;77.36;99716.13;4950371;28;20035;-69
2022/02/20 06:21:24;;;;;;;1.15;1.10;;;;;;;10.05;76.88;99706.56;4955062;28;20091;-70
2022/02/20 06:23:50;;;;;;;0.10;0.10;;;;;;;10.09;76.67;99706.81;4925234;28;20057;-70
2022/02/20 06:26:15;;;;;;;0.00;0.00;;;;;;;10.11;77.32;99710.09;4950581;28;20557;-70
2022/02/20 06:28:40;;;;;;;0.75;0.55;;;;;;;10.09;76.14;99709.53;4955064;28;20498;-69
2022/02/20 06:31:06;;;;;;;0.00;0.00;;;;;;;10.10;76.90;99705.72;4950417;28;20032;-69
2022/02/20 06:33:31;;;;;;;16.65;0.15;;;;;;;10.10;76.79;99703.00;4957198;28;20061;-70
2022/02/20 06:35:57;;;;;;;5.68;0.65;;;;;;;10.07;76.84;99687.16;4954841;28;20036;-69
2022/02/20 06:38:23;;;;;;;10.77;0.55;;;;;;;10.11;76.89;99712.84;4948235;28;20520;-69
2022/02/20 06:40:48;;;;;;;1.65;1.40;;;;;;;10.10;76.95;99694.78;4933837;29;20158;-71
2022/02/20 06:43:14;;;;;;;0.50;0.22;;;;;;;10.12;76.71;99725.41;4949006;28;20537;-70
2022/02/20 06:45:39;;;;;;;5.63;2.17;;;;;;;10.08;76.25;99680.63;4952202;28;20090;-70
2022/02/20 06:48:05;;;;;;;0.28;0.28;;;;;;;10.11;77.19;99680.06;4933981;28;20036;-70
2022/02/20 06:50:30;;;;;;;2.42;0.82;;;;;;;10.09;76.32;99682.22;4921881;29;20405;-71
2022/02/20 06:52:56;;;;;;;0.00;0.00;;;;;;;10.07;76.27;99678.97;4953434;28;20393;-70
2022/02/20 06:55:22;;;;;;;0.00;0.00;;;;;;;10.05;76.71;99678.44;4951319;28;20082;-70
2022/02/20 06:57:47;;;;;;;0.00;0.00;;;;;;;10.07;78.37;99678.97;4954454;28;20033;-69
2022/02/20 07:00:14;;;;;;;0.00;0.00;;;;;;;10.05;77.86;99683.91;4948046;28;20118;-70
2022/02/20 07:02:40;;;;;;;0.00;0.00;;;;;;;10.03;77.71;99666.97;4949527;28;20487;-70
2022/02/20 07:05:07;;;;;;;0.00;0.00;;;;;;;10.04;78.13;99685.00;4947576;28;20367;-68
2022/02/20 07:07:33;;;;;;;0.00;0.00;;;;;;;10.05;78.69;99678.44;4937284;28;20107;-71
2022/02/20 07:09:59;;;;;;;2.72;1.73;;;;;;;10.00;78.27;99684.72;4945699;28;20150;-69
2022/02/20 07:12:25;;;;;;;0.00;0.00;;;;;;;9.94;78.27;99688.59;4949690;28;20034;-68
2022/02/20 07:14:51;;;;;;;0.00;0.00;;;;;;;9.88;79.28;99709.63;4946710;28;20039;-69
2022/02/20 07:17:17;;;;;;;0.30;0.30;;;;;;;9.80;79.49;99696.56;4955683;28;20022;-72
2022/02/20 07:19:42;;;;;;;0.00;0.00;;;;;;;9.78;79.97;99690.56;4939579;29;20027;-70
2022/02/20 07:22:08;;;;;;;4.43;0.55;;;;;;;9.77;79.92;99706.13;4955839;28;20496;-67
2022/02/20 07:24:33;;;;;;;0.00;0.00;;;;;;;9.74;80.90;99692.22;4938396;28;20165;-70
2022/02/20 07:26:59;;;;;;;7.25;2.75;;;;;;;9.68;80.60;99720.63;4951101;28;20047;-69
2022/02/20 07:29:24;;;;;;;0.00;0.00;;;;;;;9.67;81.46;99691.72;4945605;28;20047;-70
2022/02/20 07:31:53;;;;;;;0.57;0.57;;;;;;;9.69;81.62;99703.16;4952779;28;20023;-70
2022/02/20 07:34:19;;;;;;;0.00;0.00;;;;;;;9.66;81.46;99707.25;4954408;28;20591;-71
2022/02/20 07:36:44;;;;;;;0.10;0.10;;;;;;;9.67;81.81;99688.97;4950362;28;20031;-69
2022/02/20 07:39:11;;;;;;;0.00;0.00;;;;;;;9.66;81.94;99684.59;4942222;28;20043;-70
2022/02/20 07:41:37;;;;;;;12.25;2.20;;;;;;;9.68;82.23;99687.88;4953822;28;20024;-69
2022/02/20 07:44:05;;;;;;;0.05;0.05;;;;;;;9.69;82.10;99678.59;4951456;28;20070;-71
2022/02/20 07:46:31;;;;;;;0.80;0.80;;;;;;;9.76;82.22;99685.38;4949022;28;20032;-71
2022/02/20 07:49:00;;;;;;;0.00;0.00;;;;;;;9.81;82.64;99679.06;4951010;28;20145;-70
2022/02/20 07:51:26;;;;;;;0.32;0.32;;;;;;;9.86;82.51;99670.88;4954270;28;20031;-70
2022/02/20 07:53:52;;;;;;;0.00;0.00;;;;;;;9.89;81.92;99677.69;4937993;29;20027;-70
2022/02/20 07:56:18;;;;;;;2.50;2.30;;;;;;;9.83;81.52;99668.72;4930230;28;20031;-69
2022/02/20 07:58:46;;;;;;;0.00;0.00;;;;;;;9.92;81.62;99683.41;4954054;28;20027;-70
2022/02/20 08:01:19;;;;;;;3.10;2.83;;;;;;;9.94;81.48;99683.13;4956545;28;20043;-71
2022/02/20 08:03:44;;;;;;;0.00;0.00;;;;;;;9.94;82.03;99703.06;4942332;28;20035;-69
2022/02/20 08:06:10;;;;;;;0.10;0.10;;;;;;;9.95;82.32;99692.97;4944215;28;20035;-70
2022/02/20 08:08:35;;;;;;;0.00;0.00;;;;;;;10.00;81.79;99675.72;4941598;29;20421;-72
2022/02/20 08:11:03;;;;;;;2.42;2.30;;;;;;;9.93;81.50;99685.06;4955730;28;20110;-72
2022/02/20 08:13:28;;;;;;;1.50;1.40;;;;;;;9.94;81.97;99686.69;4936786;29;20059;-71
2022/02/20 08:15:55;;;;;;;0.00;0.00;;;;;;;9.83;83.04;99690.56;4955253;28;20553;-70
2022/02/20 08:18:21;;;;;;;0.98;0.98;;;;;;;9.78;84.16;99698.75;4955393;28;20023;-72
2022/02/20 08:20:47;;;;;;;0.00;0.00;;;;;;;9.68;85.13;99683.25;4941231;28;20065;-71
2022/02/20 08:23:14;;;;;;;13.77;1.35;;;;;;;9.55;86.66;99675.63;4944149;29;20077;-71
2022/02/20 08:25:40;;;;;;;0.00;0.00;;;;;;;9.46;87.37;99686.28;4954179;28;20409;-71
2022/02/20 08:28:06;;;;;;;0.52;0.52;;;;;;;9.36;88.13;99669.94;4959458;28;20020;-72
2022/02/20 08:30:32;;;;;;;0.40;0.40;;;;;;;9.31;89.13;99661.78;4955297;28;20015;-72
2022/02/20 08:32:58;;;;;;;3.60;2.28;;;;;;;9.26;90.23;99666.13;4960155;28;20102;-71
2022/02/20 08:35:23;;;;;;;1.40;0.60;;;;;;;9.26;90.77;99685.25;4955418;28;20031;-75
2022/02/20 08:37:49;;;;;;;12.25;2.00;;;;;;;9.20;91.33;99675.44;4941348;28;20110;-74
2022/02/20 08:40:43;;;;;;;1.15;1.02;;;;;;;9.16;91.75;99666.16;4940524;29;20560;-73
2022/02/20 08:43:09;;;;;;;0.95;0.55;;;;;;;9.25;91.72;99652.78;4951569;28;20058;-73
2022/02/20 08:45:35;;;;;;;0.00;0.00;;;;;;;9.17;92.61;99645.97;4960964;28;20034;-73
2022/02/20 08:48:03;;;;;;;0.00;0.00;;;;;;;9.23;92.92;99661.25;4959665;28;20035;-74
2022/02/20 08:50:49;;;;;;;0.50;0.22;;;;;;;9.29;93.42;99653.03;4942334;29;20054;-74
2022/02/20 08:53:18;;;;;;;0.00;0.00;;;;;;;9.29;92.99;99647.56;4948365;28;20497;-75
2022/02/20 08:55:43;;;;;;;0.15;0.15;;;;;;;9.32;93.12;99644.31;4958342;28;20035;-75
2022/02/20 08:58:09;;;;;;;0.60;0.60;;;;;;;9.30;93.49;99660.13;4960303;28;20130;-74
2022/02/20 09:01:18;;;;;;;3.72;1.23;;;;;;;9.26;93.84;99663.41;4960349;28;20073;-77
2022/02/20 09:04:02;;;;;;;;;;;;;;;;;;;;;
2022/02/20 09:06:53;;;;;;;0.00;0.00;;;;;;;9.28;94.39;99641.31;4957309;28;20087;-76
2022/02/20 09:09:31;;;;;;;;;;;;;;;;;;;;;
2022/02/20 09:12:45;;;;;;;;;;;;;;;;;;;;;
2022/02/20 09:15:34;;;;;;;13.40;0.85;;;;;;;9.27;94.59;99639.66;4959078;28;20107;-75
2022/02/20 09:21:09;;;;;;;2.70;0.63;;;;;;;9.22;95.31;99626.06;4959105;28;20099;-76
2022/02/20 09:23:42;;;;;;;4.28;0.98;;;;;;;9.25;95.71;99637.22;4940845;28;20070;-75
2022/02/20 09:26:10;;;;;;;0.65;0.60;;;;;;;9.17;95.74;99618.72;4935275;28;20039;-71
2022/02/20 09:29:14;;;;;;;2.00;1.88;;;;;;;9.20;95.78;99604.50;4956896;28;20078;-69
2022/02/20 09:32:24;;;;;;;21.35;3.83;;;;;;;9.31;96.10;99618.13;4952777;28;20035;-73
2022/02/20 09:35:48;;;;;;;;;;;;;;;;;;;;;
2022/02/20 09:38:29;;;;;;;0.45;0.45;;;;;;;9.30;96.74;99600.09;4945961;28;20157;-74
2022/02/20 09:41:03;;;;;;;0.90;0.90;;;;;;;9.36;96.52;99604.44;4948394;28;20063;-74
2022/02/20 09:43:38;;;;;;;;;;;;;;;;;;;;;
2022/02/20 09:46:16;;;;;;;0.10;0.10;;;;;;;9.43;96.82;99586.69;4959696;28;20092;-71
2022/02/20 09:48:44;;;;;;;2.00;0.52;;;;;;;9.44;96.65;99592.97;4941520;28;20091;-73
2022/02/20 09:51:10;;;;;;;3.92;1.83;;;;;;;9.47;96.90;99584.22;4942422;28;20059;-70
2022/02/20 09:53:45;;;;;;;;;;;;;;;;;;;;;
2022/02/20 09:56:15;;;;;;;0.25;0.25;;;;;;;9.51;97.11;99593.50;4954879;28;20388;-71
2022/02/20 09:59:02;;;;;;;0.00;0.00;;;;;;;9.52;97.02;99564.28;4947104;28;20070;-69
2022/02/20 10:15:50;;;;;;;;;;;;;;;;;;;;;
2022/02/20 10:19:01;;;;;;;1.88;1.75;;;;;;;9.65;97.64;99550.03;4880240;29;20055;-73
2022/02/20 10:21:39;;;;;;;;;;;;;;;;;;;;;
2022/02/20 10:24:14;;;;;;;0.00;0.00;;;;;;;9.75;97.32;99539.06;4949777;28;20025;-72
2022/02/20 10:26:47;;;;;;;1.55;1.17;;;;;;;9.76;97.69;99543.41;4951314;28;20039;-72
2022/02/20 10:29:21;;;;;;;5.05;0.60;;;;;;;9.81;97.56;99545.28;4957687;28;20054;-72
2022/02/20 10:32:00;;;;;;;1.08;1.08;;;;;;;9.83;97.57;99523.97;4956587;28;20054;-73
2022/02/20 10:41:45;;;;;;;0.00;0.00;;;;;;;9.86;97.92;99537.06;4958516;28;20042;-74
2022/02/20 10:49:24;;;;;;;;;;;;;;;;;;;;;
2022/02/20 10:51:58;;;;;;;2.72;1.50;;;;;;;9.95;97.91;99512.69;4887015;29;20096;-71
2022/02/20 10:55:02;;;;;;;;;;;;;;;;;;;;;
2022/02/20 10:57:58;;;;;;;0.00;0.00;;;;;;;9.99;97.95;99540.25;4947879;28;20083;-75
2022/02/20 11:00:24;;;;;;;0.00;0.00;;;;;;;9.91;98.31;99512.44;4929769;28;20036;-73
2022/02/20 11:03:18;;;;;;;;;;;;;;;;;;;;;
2022/02/20 11:08:43;;;;;;;0.00;0.00;;;;;;;10.00;98.42;99484.53;4942350;28;20035;-72
2022/02/20 11:15:20;;;;;;;;;;;;;;;;;;;;;
2022/02/20 11:21:33;;;;;;;;;;;;;;;;;;;;;
2022/02/20 11:24:30;;;;;;;;;;;;;;;;;;;;;
2022/02/20 11:27:18;;;;;;;0.00;0.00;;;;;;;10.07;98.26;99483.09;4839041;29;20105;-72
2022/02/20 11:29:47;;;;;;;0.00;0.00;;;;;;;10.09;98.80;99491.00;4829402;29;20125;-73
2022/02/20 11:32:28;;;;;;;0.30;0.30;;;;;;;10.13;98.66;99459.28;4832131;29;20094;-74
2022/02/20 11:34:58;;;;;;;0.00;0.00;;;;;;;10.10;98.13;99470.78;4845070;29;20045;-75
2022/02/20 11:38:10;;;;;;;1.10;0.20;;;;;;;10.12;98.40;99463.16;4832067;29;20030;-75
2022/02/20 11:41:06;;;;;;;0.00;0.00;;;;;;;10.21;97.71;99488.75;4835415;29;20042;-73
2022/02/20 11:44:03;;;;;;;0.00;0.00;;;;;;;10.18;98.04;99481.13;4847542;29;20129;-74
2022/02/20 11:49:56;;;;;;;0.47;0.47;;;;;;;10.17;98.26;99433.03;4870281;29;20053;-74
2022/02/20 11:53:02;;;;;;;0.00;0.00;;;;;;;10.21;97.98;99447.75;4937758;28;20039;-72
2022/02/20 11:55:39;;;;;;;0.00;0.00;;;;;;;10.23;97.81;99442.81;4944557;28;20034;-72
2022/02/20 11:58:16;;;;;;;0.00;0.00;;;;;;;10.22;97.48;99441.19;4951701;28;20425;-72
2022/02/20 12:01:17;;;;;;;0.00;0.00;;;;;;;10.21;97.54;99444.22;4943264;28;20053;-72
2022/02/20 12:03:50;;;;;;;0.00;0.00;;;;;;;10.26;98.40;99425.84;4951014;28;20031;-72
2022/02/20 12:06:28;;;;;;;;;;;;;;;;;;;;;
2022/02/20 12:41:00;;;;;;;0.00;0.00;;;;;;;10.60;96.75;99329.31;4844110;29;20073;-72
2022/02/20 12:43:28;;;;;;;0.00;0.00;;;;;;;10.59;96.72;99303.06;4830426;29;20066;-72
2022/02/20 12:45:53;;;;;;;0.00;0.00;;;;;;;10.60;95.64;99328.47;4872884;29;20033;-71
2022/02/20 12:48:21;;;;;;;0.00;0.00;;;;;;;10.55;96.01;99312.16;4942004;28;20050;-72
2022/02/20 12:50:49;;;;;;;0.00;0.00;;;;;;;10.56;95.91;99303.66;4939878;28;20027;-77
2022/02/20 12:53:18;;;;;;;0.10;0.10;;;;;;;10.68;96.31;99305.94;4944234;29;20027;-77
2022/02/20 12:55:49;;;;;;;2.65;1.55;;;;;;;10.62;95.55;99294.28;4954949;28;20111;-76
2022/02/20 12:58:15;;;;;;;0.00;0.00;;;;;;;10.56;94.37;99268.13;4925846;29;20103;-75
2022/02/20 13:00:48;;;;;;;0.15;0.15;;;;;;;10.56;94.46;99270.84;4932725;28;20034;-72
2022/02/20 13:03:22;;;;;;;3.10;0.20;;;;;;;10.59;94.44;99275.72;4943918;29;20153;-72
2022/02/20 13:05:50;;;;;;;0.00;0.00;;;;;;;10.63;94.05;99263.09;4958234;28;20034;-72
2022/02/20 13:08:30;;;;;;;0.00;0.00;;;;;;;10.75;93.43;99275.53;4945493;29;20055;-71
2022/02/20 13:10:56;;;;;;;0.00;0.00;;;;;;;10.75;93.48;99250.91;4947770;29;20016;-72
2022/02/20 13:13:23;;;;;;;2.30;0.65;;;;;;;10.77;93.15;99244.03;4932967;29;20126;-72
2022/02/20 13:16:02;;;;;;;5.28;1.88;;;;;;;10.81;92.63;99257.94;4951002;28;20050;-72
2022/02/20 13:18:29;;;;;;;0.00;0.00;;;;;;;10.79;91.60;99230.03;4952063;28;20055;-72
2022/02/20 13:20:59;;;;;;;12.30;3.92;;;;;;;10.85;91.93;99223.41;4946538;28;20023;-72
2022/02/20 13:23:31;;;;;;;0.00;0.00;;;;;;;10.94;91.59;99209.88;4946680;28;20718;-70
2022/02/20 13:25:59;;;;;;;0.20;0.20;;;;;;;11.11;92.04;99209.31;4946917;28;20597;-69
2022/02/20 13:28:30;;;;;;;0.15;0.15;;;;;;;11.17;91.63;99202.66;4952260;28;20059;-70
2022/02/20 13:31:00;;;;;;;1.52;0.90;;;;;;;11.10;90.91;99191.28;4955372;28;20060;-70
2022/02/20 13:33:34;;;;;;;1.15;1.15;;;;;;;11.07;91.49;99195.44;4941102;28;20485;-70